createdAt,value
2019-03-06T00:00:47.445Z,70.56
2019-03-06T00:02:47.453Z,70.56
2019-03-06T00:03:47.785Z,70.46
2019-03-06T00:04:47.577Z,70.46
2019-03-06T00:05:47.546Z,70.37
2019-03-06T00:06:47.571Z,70.37
2019-03-06T00:07:47.658Z,70.37
2019-03-06T00:08:47.691Z,70.56
2019-03-06T00:09:47.669Z,70.46
2019-03-06T00:10:48.008Z,70.37
2019-03-06T00:12:47.759Z,70.17
2019-03-06T00:13:47.845Z,70.07
2019-03-06T00:14:47.833Z,70.17
2019-03-06T00:15:47.904Z,69.98
2019-03-06T00:18:47.995Z,70.07
2019-03-06T00:19:48.332Z,70.17
2019-03-06T00:20:48.008Z,70.27
2019-03-06T00:21:48.042Z,70.07
2019-03-06T00:22:48.072Z,70.17
2019-03-06T00:23:48.155Z,70.07
2019-03-06T00:25:48.211Z,70.07
2019-03-06T00:26:48.547Z,70.17
2019-03-06T00:27:48.281Z,70.07
2019-03-06T00:28:48.248Z,70.07
2019-03-06T00:29:48.286Z,70.17
2019-03-06T00:30:48.374Z,70.07
2019-03-06T00:31:48.389Z,69.98
2019-03-06T00:32:48.372Z,70.37
2019-03-06T00:33:48.720Z,69.89
2019-03-06T00:34:48.442Z,69.89
2019-03-06T00:35:48.463Z,69.89
2019-03-06T00:36:48.547Z,69.89
2019-03-06T00:37:48.522Z,69.98
2019-03-06T00:38:48.564Z,69.79
2019-03-06T00:39:48.645Z,69.98
2019-03-06T00:40:48.929Z,69.98
2019-03-06T00:41:48.707Z,69.98
2019-03-06T00:43:48.774Z,69.98
2019-03-06T00:44:48.740Z,69.98
2019-03-06T00:45:48.818Z,69.98
2019-03-06T00:46:48.800Z,69.98
2019-03-06T00:47:49.191Z,69.89
2019-03-06T00:48:48.865Z,70.17
2019-03-06T00:49:48.946Z,69.98
2019-03-06T00:50:48.928Z,69.89
2019-03-06T00:51:48.973Z,69.79
2019-03-06T00:52:48.992Z,69.79
2019-03-06T00:53:49.071Z,70.07
2019-03-06T00:54:49.430Z,70.07
2019-03-06T00:55:49.129Z,69.79
2019-03-06T00:56:49.111Z,69.89
2019-03-06T00:57:49.138Z,69.60
2019-03-06T00:58:49.224Z,69.79
2019-03-06T00:59:49.251Z,69.40
2019-03-06T01:00:49.240Z,69.60
2019-03-06T01:01:49.617Z,69.89
2019-03-06T01:02:49.349Z,69.89
2019-03-06T01:03:49.386Z,69.79
2019-03-06T01:04:49.376Z,69.60
2019-03-06T01:05:49.435Z,69.50
2019-03-06T01:06:49.419Z,69.60
2019-03-06T01:07:49.450Z,69.40
2019-03-06T01:08:49.844Z,69.69
2019-03-06T01:09:49.515Z,69.69
2019-03-06T01:10:49.592Z,69.60
2019-03-06T01:11:49.623Z,69.31
2019-03-06T01:12:49.653Z,69.31
2019-03-06T01:13:49.634Z,69.79
2019-03-06T01:14:49.672Z,69.69
2019-03-06T01:15:50.050Z,69.69
2019-03-06T01:16:49.773Z,69.98
2019-03-06T01:17:49.808Z,69.98
2019-03-06T01:19:49.872Z,69.50
2019-03-06T01:20:49.858Z,69.79
2019-03-06T01:21:49.933Z,69.79
2019-03-06T01:22:50.210Z,69.40
2019-03-06T01:24:50.033Z,69.79
2019-03-06T01:25:50.000Z,69.40
2019-03-06T01:26:50.086Z,69.79
2019-03-06T01:27:50.120Z,69.60
2019-03-06T01:28:50.094Z,69.79
2019-03-06T01:29:50.478Z,69.79
2019-03-06T01:30:50.211Z,69.50
2019-03-06T01:31:50.240Z,69.69
2019-03-06T01:32:50.375Z,69.50
2019-03-06T01:33:50.251Z,69.69
2019-03-06T01:35:50.359Z,69.89
2019-03-06T01:36:50.752Z,69.50
2019-03-06T01:37:50.376Z,69.60
2019-03-06T01:38:50.554Z,69.60
2019-03-06T01:39:50.491Z,69.89
2019-03-06T01:40:50.459Z,69.69
2019-03-06T01:41:50.502Z,69.79
2019-03-06T01:42:50.878Z,69.79
2019-03-06T01:43:50.607Z,69.89
2019-03-06T01:44:50.599Z,69.69
2019-03-06T01:45:50.721Z,69.69
2019-03-06T01:46:50.696Z,69.79
2019-03-06T01:47:50.746Z,69.69
2019-03-06T01:48:51.375Z,69.69
2019-03-06T01:49:50.792Z,69.69
2019-03-06T01:50:50.918Z,69.69
2019-03-06T01:51:50.813Z,69.69
2019-03-06T01:52:51.179Z,69.60
2019-03-06T01:53:50.918Z,69.60
2019-03-06T01:54:51.258Z,69.69
2019-03-06T01:55:50.982Z,69.89
2019-03-06T01:56:50.960Z,69.98
2019-03-06T01:57:50.993Z,69.69
2019-03-06T01:58:51.064Z,69.89
2019-03-06T01:59:51.198Z,69.60
2019-03-06T02:01:51.599Z,69.89
2019-03-06T02:02:51.293Z,69.69
2019-03-06T02:03:51.226Z,69.60
2019-03-06T02:04:51.248Z,69.98
2019-03-06T02:05:51.238Z,69.60
2019-03-06T02:06:51.413Z,69.60
2019-03-06T02:07:51.543Z,69.60
2019-03-06T02:08:51.982Z,69.89
2019-03-06T02:09:51.427Z,69.98
2019-03-06T02:10:51.388Z,69.60
2019-03-06T02:11:51.433Z,69.60
2019-03-06T02:12:51.502Z,69.89
2019-03-06T02:13:51.481Z,70.07
2019-03-06T02:14:51.515Z,70.07
2019-03-06T02:15:51.893Z,69.89
2019-03-06T02:16:51.618Z,70.07
2019-03-06T02:17:51.608Z,70.07
2019-03-06T02:18:51.635Z,69.89
2019-03-06T02:19:51.675Z,70.07
2019-03-06T02:20:51.748Z,70.07
2019-03-06T02:21:51.733Z,69.98
2019-03-06T02:22:52.129Z,69.98
2019-03-06T02:23:51.836Z,70.07
2019-03-06T02:24:51.885Z,69.89
2019-03-06T02:25:52.241Z,70.07
2019-03-06T02:26:51.880Z,69.98
2019-03-06T02:27:51.911Z,69.89
2019-03-06T02:28:52.002Z,70.17
2019-03-06T02:29:52.396Z,69.98
2019-03-06T02:30:52.006Z,69.89
2019-03-06T02:31:52.081Z,69.89
2019-03-06T02:32:52.059Z,69.89
2019-03-06T02:33:52.146Z,69.89
2019-03-06T02:34:52.125Z,69.89
2019-03-06T02:35:52.205Z,70.07
2019-03-06T02:36:52.544Z,69.60
2019-03-06T02:38:52.255Z,69.69
2019-03-06T02:39:52.334Z,69.89
2019-03-06T02:40:52.358Z,69.89
2019-03-06T02:41:52.377Z,69.69
2019-03-06T02:42:52.369Z,69.69
2019-03-06T02:43:52.752Z,69.98
2019-03-06T02:44:52.483Z,69.79
2019-03-06T02:45:52.467Z,69.79
2019-03-06T02:46:52.498Z,69.60
2019-03-06T02:47:52.578Z,69.89
2019-03-06T02:49:52.640Z,69.60
2019-03-06T02:50:52.976Z,69.69
2019-03-06T02:51:52.714Z,69.69
2019-03-06T02:52:52.724Z,69.79
2019-03-06T02:53:52.705Z,69.69
2019-03-06T02:54:52.743Z,69.79
2019-03-06T02:55:52.768Z,69.60
2019-03-06T02:56:52.803Z,69.50
2019-03-06T02:57:53.184Z,69.50
2019-03-06T02:58:52.861Z,69.79
2019-03-06T02:59:52.963Z,69.79
2019-03-06T03:00:52.924Z,69.89
2019-03-06T03:01:53.003Z,70.07
2019-03-06T03:02:52.989Z,69.79
2019-03-06T03:03:53.093Z,69.50
2019-03-06T03:04:53.408Z,69.89
2019-03-06T03:05:53.084Z,69.69
2019-03-06T03:06:53.116Z,69.79
2019-03-06T03:07:53.141Z,69.69
2019-03-06T03:08:53.215Z,69.69
2019-03-06T03:09:53.204Z,69.66
2019-03-06T03:10:53.229Z,69.79
2019-03-06T03:11:53.721Z,69.69
2019-03-06T03:12:53.297Z,69.69
2019-03-06T03:13:53.369Z,69.79
2019-03-06T03:14:53.350Z,70.07
2019-03-06T03:15:53.533Z,69.60
2019-03-06T03:16:53.467Z,69.40
2019-03-06T03:17:53.450Z,69.37
2019-03-06T03:18:53.825Z,69.50
2019-03-06T03:19:53.508Z,69.40
2019-03-06T03:20:53.591Z,69.75
2019-03-06T03:21:53.676Z,69.89
2019-03-06T03:22:53.601Z,69.60
2019-03-06T03:23:53.684Z,69.40
2019-03-06T03:24:53.974Z,69.60
2019-03-06T03:25:53.741Z,69.89
2019-03-06T03:26:53.770Z,69.66
2019-03-06T03:27:53.751Z,69.69
2019-03-06T03:28:53.835Z,69.79
2019-03-06T03:29:53.814Z,69.79
2019-03-06T03:30:54.198Z,69.69
2019-03-06T03:31:53.939Z,69.66
2019-03-06T03:32:54.066Z,69.60
2019-03-06T03:34:54.017Z,69.98
2019-03-06T03:35:54.146Z,70.04
2019-03-06T03:36:54.391Z,70.04
2019-03-06T03:37:54.057Z,70.17
2019-03-06T03:38:54.092Z,70.17
2019-03-06T03:39:54.170Z,70.07
2019-03-06T03:40:54.208Z,70.14
2019-03-06T03:41:54.236Z,69.98
2019-03-06T03:42:54.225Z,70.07
2019-03-06T03:43:54.610Z,70.17
2019-03-06T03:44:54.276Z,69.95
2019-03-06T03:45:54.371Z,69.95
2019-03-06T03:46:54.392Z,70.07
2019-03-06T03:48:54.443Z,69.79
2019-03-06T03:49:54.430Z,69.85
2019-03-06T03:50:54.812Z,70.23
2019-03-06T03:51:54.538Z,69.95
2019-03-06T03:52:54.520Z,70.07
2019-03-06T03:53:54.697Z,69.75
2019-03-06T03:54:54.577Z,69.98
2019-03-06T03:55:54.667Z,69.79
2019-03-06T03:56:54.638Z,69.75
2019-03-06T03:57:55.034Z,69.79
2019-03-06T03:58:54.705Z,70.23
2019-03-06T03:59:55.864Z,70.27
2019-03-06T04:00:54.823Z,69.98
2019-03-06T04:01:54.803Z,69.75
2019-03-06T04:02:54.875Z,69.69
2019-03-06T04:03:54.911Z,69.69
2019-03-06T04:04:55.246Z,69.60
2019-03-06T04:05:54.968Z,69.66
2019-03-06T04:07:55.031Z,70.14
2019-03-06T04:08:55.069Z,70.17
2019-03-06T04:09:55.104Z,69.98
2019-03-06T04:10:55.130Z,69.95
2019-03-06T04:11:55.453Z,69.75
2019-03-06T04:13:55.325Z,69.75
2019-03-06T04:14:55.194Z,69.85
2019-03-06T04:15:55.280Z,69.98
2019-03-06T04:16:55.317Z,69.66
2019-03-06T04:17:55.283Z,69.66
2019-03-06T04:18:55.676Z,69.66
2019-03-06T04:19:55.399Z,69.46
2019-03-06T04:20:55.450Z,69.79
2019-03-06T04:21:55.474Z,69.56
2019-03-06T04:22:55.499Z,69.66
2019-03-06T04:23:55.526Z,69.56
2019-03-06T04:24:55.556Z,69.56
2019-03-06T04:25:55.837Z,69.66
2019-03-06T04:26:55.591Z,69.66
2019-03-06T04:27:55.650Z,69.60
2019-03-06T04:28:55.671Z,69.66
2019-03-06T04:29:55.659Z,69.56
2019-03-06T04:30:55.738Z,69.85
2019-03-06T04:31:55.974Z,69.75
2019-03-06T04:32:56.109Z,69.95
2019-03-06T04:33:55.845Z,69.95
2019-03-06T04:34:55.810Z,69.66
2019-03-06T04:35:55.851Z,69.79
2019-03-06T04:36:55.915Z,69.66
2019-03-06T04:37:55.924Z,69.60
2019-03-06T04:38:55.936Z,69.56
2019-03-06T04:39:56.327Z,69.56
2019-03-06T04:40:56.038Z,69.66
2019-03-06T04:42:56.102Z,69.56
2019-03-06T04:43:56.083Z,69.56
2019-03-06T04:44:56.123Z,69.66
2019-03-06T04:45:56.199Z,70.07
2019-03-06T04:46:56.477Z,69.95
2019-03-06T04:47:56.210Z,69.66
2019-03-06T04:48:56.248Z,69.98
2019-03-06T04:49:56.317Z,69.75
2019-03-06T04:50:56.454Z,69.95
2019-03-06T04:51:56.380Z,69.95
2019-03-06T04:52:56.363Z,69.95
2019-03-06T04:53:56.751Z,69.95
2019-03-06T04:54:56.423Z,69.95
2019-03-06T04:55:56.505Z,69.75
2019-03-06T04:56:56.488Z,69.95
2019-03-06T04:57:56.567Z,69.79
2019-03-06T04:58:56.544Z,69.95
2019-03-06T04:59:56.625Z,69.98
2019-03-06T05:00:56.978Z,69.95
2019-03-06T05:02:56.713Z,69.79
2019-03-06T05:03:56.745Z,69.89
2019-03-06T05:04:56.727Z,70.04
2019-03-06T05:05:56.806Z,70.07
2019-03-06T05:06:56.859Z,70.14
2019-03-06T05:07:57.176Z,70.37
2019-03-06T05:08:56.853Z,69.98
2019-03-06T05:09:56.933Z,69.98
2019-03-06T05:10:56.965Z,70.27
2019-03-06T05:11:56.992Z,69.95
2019-03-06T05:12:57.019Z,70.33
2019-03-06T05:13:57.352Z,70.37
2019-03-06T05:14:57.039Z,70.33
2019-03-06T05:15:57.118Z,70.07
2019-03-06T05:16:57.143Z,70.37
2019-03-06T05:17:57.127Z,70.17
2019-03-06T05:18:57.304Z,69.98
2019-03-06T05:19:57.535Z,69.85
2019-03-06T05:20:57.218Z,69.98
2019-03-06T05:21:57.248Z,69.95
2019-03-06T05:22:57.281Z,70.33
2019-03-06T05:23:57.311Z,70.04
2019-03-06T05:24:57.344Z,70.37
2019-03-06T05:25:57.721Z,70.33
2019-03-06T05:26:57.563Z,70.37
2019-03-06T05:27:57.486Z,69.95
2019-03-06T05:28:57.516Z,70.27
2019-03-06T05:29:57.498Z,70.04
2019-03-06T05:30:57.546Z,69.98
2019-03-06T05:31:57.704Z,69.98
2019-03-06T05:32:57.887Z,70.27
2019-03-06T05:33:57.673Z,70.33
2019-03-06T05:34:57.711Z,70.37
2019-03-06T05:35:57.835Z,69.85
2019-03-06T05:36:57.723Z,69.75
2019-03-06T05:37:57.795Z,69.89
2019-03-06T05:38:57.776Z,70.27
2019-03-06T05:39:58.115Z,70.04
2019-03-06T05:40:57.832Z,70.14
2019-03-06T05:41:57.859Z,70.23
2019-03-06T05:42:57.940Z,70.14
2019-03-06T05:43:57.989Z,70.04
2019-03-06T05:44:58.107Z,69.95
2019-03-06T05:45:58.034Z,70.14
2019-03-06T05:46:58.366Z,70.04
2019-03-06T05:47:58.095Z,70.17
2019-03-06T05:48:58.241Z,69.95
2019-03-06T05:49:58.116Z,70.04
2019-03-06T05:50:58.134Z,70.14
2019-03-06T05:51:58.220Z,70.04
2019-03-06T05:52:58.246Z,69.95
2019-03-06T05:54:58.612Z,70.14
2019-03-06T05:55:58.292Z,70.04
2019-03-06T05:57:58.387Z,70.04
2019-03-06T05:58:58.390Z,69.95
2019-03-06T05:59:58.769Z,69.75
2019-03-06T06:00:58.496Z,70.04
2019-03-06T06:01:58.823Z,70.04
2019-03-06T06:02:58.661Z,70.04
2019-03-06T06:03:58.593Z,70.04
2019-03-06T06:04:58.621Z,70.04
2019-03-06T06:05:58.643Z,70.04
2019-03-06T06:06:58.682Z,70.04
2019-03-06T06:07:58.738Z,70.17
2019-03-06T06:08:59.035Z,70.04
2019-03-06T06:09:58.727Z,70.14
2019-03-06T06:10:58.800Z,70.14
2019-03-06T06:11:58.834Z,70.04
2019-03-06T06:12:58.818Z,70.14
2019-03-06T06:13:58.841Z,70.04
2019-03-06T06:14:58.878Z,69.95
2019-03-06T06:15:59.262Z,69.95
2019-03-06T06:16:58.987Z,69.95
2019-03-06T06:17:58.984Z,70.14
2019-03-06T06:18:59.047Z,70.23
2019-03-06T06:19:59.177Z,70.14
2019-03-06T06:20:59.059Z,70.04
2019-03-06T06:21:59.155Z,70.14
2019-03-06T06:22:59.479Z,69.95
2019-03-06T06:23:59.201Z,70.14
2019-03-06T06:24:59.244Z,70.33
2019-03-06T06:25:59.259Z,70.14
2019-03-06T06:26:59.239Z,70.14
2019-03-06T06:27:59.435Z,70.14
2019-03-06T06:28:59.456Z,70.04
2019-03-06T06:29:59.331Z,70.04
2019-03-06T06:30:59.360Z,69.95
2019-03-06T06:31:59.396Z,69.85
2019-03-06T06:32:59.426Z,70.04
2019-03-06T06:33:59.507Z,70.14
2019-03-06T06:34:59.540Z,70.23
2019-03-06T06:35:59.865Z,70.04
2019-03-06T06:36:59.601Z,70.04
2019-03-06T06:37:59.635Z,70.07
2019-03-06T06:38:59.662Z,70.23
2019-03-06T06:39:59.713Z,69.95
2019-03-06T06:40:59.724Z,70.07
2019-03-06T06:41:59.703Z,70.07
2019-03-06T06:42:59.786Z,70.17
2019-03-06T06:43:59.815Z,70.14
2019-03-06T06:44:59.796Z,70.14
2019-03-06T06:45:59.875Z,70.17
2019-03-06T06:46:59.994Z,70.17
2019-03-06T06:48:00.033Z,70.04
2019-03-06T06:48:59.914Z,70.07
2019-03-06T06:49:59.952Z,70.17
2019-03-06T06:51:01.836Z,70.14
2019-03-06T06:52:00.054Z,70.04
2019-03-06T06:53:00.091Z,69.95
2019-03-06T06:54:00.416Z,69.95
2019-03-06T06:55:00.432Z,69.95
2019-03-06T06:56:00.135Z,70.14
2019-03-06T06:57:00.222Z,70.04
2019-03-06T06:58:00.193Z,70.17
2019-03-06T06:59:00.219Z,70.14
2019-03-06T07:00:00.389Z,70.23
2019-03-06T07:01:00.442Z,70.14
2019-03-06T07:02:00.362Z,69.95
2019-03-06T07:03:00.433Z,70.07
2019-03-06T07:04:00.426Z,70.33
2019-03-06T07:05:00.413Z,69.98
2019-03-06T07:06:00.553Z,69.79
2019-03-06T07:07:00.840Z,69.89
2019-03-06T07:08:00.553Z,70.17
2019-03-06T07:09:00.586Z,69.89
2019-03-06T07:10:00.644Z,69.98
2019-03-06T07:11:00.603Z,70.17
2019-03-06T07:12:00.622Z,69.98
2019-03-06T07:13:00.707Z,70.23
2019-03-06T07:14:01.032Z,69.98
2019-03-06T07:15:00.724Z,69.98
2019-03-06T07:16:00.798Z,70.07
2019-03-06T07:17:00.775Z,70.27
2019-03-06T07:18:00.802Z,69.98
2019-03-06T07:19:00.889Z,70.46
2019-03-06T07:20:00.920Z,70.07
2019-03-06T07:21:01.248Z,70.07
2019-03-06T07:22:00.931Z,69.85
2019-03-06T07:23:01.010Z,70.17
2019-03-06T07:24:00.995Z,70.07
2019-03-06T07:25:01.036Z,70.17
2019-03-06T07:26:01.055Z,69.98
2019-03-06T07:27:01.088Z,70.27
2019-03-06T07:28:01.474Z,70.17
2019-03-06T07:29:01.433Z,69.98
2019-03-06T07:30:01.177Z,69.98
2019-03-06T07:31:01.257Z,70.07
2019-03-06T07:32:01.284Z,70.37
2019-03-06T07:33:01.321Z,69.98
2019-03-06T07:34:01.308Z,70.27
2019-03-06T07:35:01.686Z,69.98
2019-03-06T07:36:01.405Z,69.79
2019-03-06T07:37:01.441Z,69.79
2019-03-06T07:39:01.454Z,70.17
2019-03-06T07:40:01.481Z,69.69
2019-03-06T07:41:01.514Z,70.07
2019-03-06T07:42:01.597Z,69.98
2019-03-06T07:43:01.576Z,69.69
2019-03-06T07:44:01.656Z,69.98
2019-03-06T07:45:01.684Z,69.79
2019-03-06T07:46:01.673Z,69.69
2019-03-06T07:47:01.696Z,69.60
2019-03-06T07:48:02.077Z,69.89
2019-03-06T07:49:01.826Z,69.98
2019-03-06T07:50:01.941Z,69.79
2019-03-06T07:51:01.820Z,69.69
2019-03-06T07:52:01.901Z,69.79
2019-03-06T07:53:01.880Z,69.79
2019-03-06T07:54:02.280Z,69.89
2019-03-06T07:55:01.951Z,69.40
2019-03-06T07:56:01.973Z,69.31
2019-03-06T07:57:02.009Z,69.40
2019-03-06T07:58:02.041Z,69.40
2019-03-06T07:59:02.129Z,69.02
2019-03-06T08:00:02.450Z,68.92
2019-03-06T08:01:02.143Z,69.02
2019-03-06T08:02:02.163Z,69.12
2019-03-06T08:03:02.203Z,69.21
2019-03-06T08:04:02.287Z,69.31
2019-03-06T08:05:02.307Z,69.31
2019-03-06T08:06:02.287Z,69.12
2019-03-06T08:07:02.369Z,69.31
2019-03-06T08:08:02.348Z,68.92
2019-03-06T08:09:02.429Z,69.21
2019-03-06T08:10:02.411Z,69.31
2019-03-06T08:11:02.443Z,69.12
2019-03-06T08:12:02.817Z,69.12
2019-03-06T08:13:02.504Z,69.40
2019-03-06T08:14:02.586Z,69.50
2019-03-06T08:15:02.563Z,69.40
2019-03-06T08:16:02.646Z,68.73
2019-03-06T08:17:02.675Z,69.12
2019-03-06T08:18:03.011Z,68.92
2019-03-06T08:19:02.700Z,68.92
2019-03-06T08:20:02.765Z,69.02
2019-03-06T08:22:02.825Z,69.12
2019-03-06T08:23:02.812Z,69.12
2019-03-06T08:24:02.836Z,68.83
2019-03-06T08:25:03.222Z,68.73
2019-03-06T08:26:02.960Z,68.63
2019-03-06T08:27:02.930Z,68.83
2019-03-06T08:28:03.017Z,68.92
2019-03-06T08:29:02.993Z,68.83
2019-03-06T08:30:03.028Z,68.92
2019-03-06T08:31:03.115Z,69.12
2019-03-06T08:32:03.089Z,69.12
2019-03-06T08:33:03.474Z,68.86
2019-03-06T08:34:03.152Z,69.02
2019-03-06T08:35:03.206Z,68.63
2019-03-06T08:36:03.275Z,68.63
2019-03-06T08:37:03.304Z,68.73
2019-03-06T08:38:03.329Z,68.67
2019-03-06T08:39:03.305Z,68.44
2019-03-06T08:40:03.348Z,68.35
2019-03-06T08:41:05.292Z,68.63
2019-03-06T08:42:03.400Z,68.44
2019-03-06T08:43:03.492Z,68.76
2019-03-06T08:44:03.517Z,68.67
2019-03-06T08:45:03.499Z,68.48
2019-03-06T08:46:03.529Z,68.19
2019-03-06T08:47:03.567Z,68.76
2019-03-06T08:48:03.665Z,68.38
2019-03-06T08:50:03.707Z,68.29
2019-03-06T08:51:03.691Z,67.90
2019-03-06T08:52:03.761Z,68.67
2019-03-06T08:53:03.804Z,68.19
2019-03-06T08:54:03.776Z,68.29
2019-03-06T08:55:03.864Z,68.29
2019-03-06T08:56:03.889Z,68.57
2019-03-06T08:57:04.223Z,68.38
2019-03-06T08:58:03.909Z,68.57
2019-03-06T08:59:03.952Z,68.48
2019-03-06T09:00:04.019Z,68.09
2019-03-06T09:01:04.080Z,68.09
2019-03-06T09:02:04.025Z,68.09
2019-03-06T09:03:04.124Z,68.29
2019-03-06T09:04:04.444Z,68.09
2019-03-06T09:05:04.166Z,68.09
2019-03-06T09:06:04.152Z,68.09
2019-03-06T09:07:04.177Z,68.09
2019-03-06T09:08:04.268Z,67.90
2019-03-06T09:09:04.299Z,67.90
2019-03-06T09:10:04.280Z,68.19
2019-03-06T09:11:04.608Z,67.99
2019-03-06T09:12:04.351Z,67.71
2019-03-06T09:13:04.425Z,67.80
2019-03-06T09:14:04.404Z,67.71
2019-03-06T09:15:04.484Z,67.61
2019-03-06T09:16:04.470Z,67.71
2019-03-06T09:17:04.511Z,67.61
2019-03-06T09:18:09.183Z,67.80
2019-03-06T09:20:04.649Z,67.71
2019-03-06T09:21:04.687Z,67.22
2019-03-06T09:22:04.662Z,67.32
2019-03-06T09:23:04.687Z,67.42
2019-03-06T09:24:04.761Z,67.51
2019-03-06T09:25:04.812Z,67.65
2019-03-06T09:26:04.841Z,67.71
2019-03-06T09:27:04.811Z,67.71
2019-03-06T09:28:04.842Z,67.71
2019-03-06T09:29:04.872Z,67.71
2019-03-06T09:30:04.902Z,67.71
2019-03-06T09:31:04.983Z,67.07
2019-03-06T09:32:05.017Z,67.03
2019-03-06T09:33:05.049Z,67.16
2019-03-06T09:34:05.030Z,67.32
2019-03-06T09:35:05.121Z,67.22
2019-03-06T09:36:05.094Z,67.16
2019-03-06T09:37:05.480Z,67.22
2019-03-06T09:38:10.925Z,67.16
2019-03-06T09:39:05.339Z,67.51
2019-03-06T09:40:06.203Z,66.97
2019-03-06T09:41:05.247Z,66.97
2019-03-06T09:42:05.333Z,67.07
2019-03-06T09:43:05.364Z,66.88
2019-03-06T09:44:05.401Z,66.88
2019-03-06T09:45:05.425Z,66.97
2019-03-06T09:46:05.404Z,66.97
2019-03-06T09:47:05.487Z,66.97
2019-03-06T09:48:05.517Z,66.88
2019-03-06T09:49:11.535Z,66.78
2019-03-06T09:50:05.584Z,66.88
2019-03-06T09:51:05.623Z,66.49
2019-03-06T09:52:05.648Z,66.58
2019-03-06T09:53:05.642Z,66.30
2019-03-06T09:54:05.711Z,66.58
2019-03-06T09:55:05.855Z,66.58
2019-03-06T09:56:05.723Z,66.58
2019-03-06T09:57:05.759Z,66.58
2019-03-06T09:58:05.840Z,66.78
2019-03-06T09:59:05.824Z,66.68
2019-03-06T10:00:05.905Z,66.68
2019-03-06T10:01:05.935Z,66.88
2019-03-06T10:02:07.225Z,66.88
2019-03-06T10:03:06.012Z,66.30
2019-03-06T10:04:06.028Z,66.39
2019-03-06T10:05:06.014Z,66.78
2019-03-06T10:06:06.038Z,66.30
2019-03-06T10:07:06.132Z,66.10
2019-03-06T10:08:06.153Z,66.10
2019-03-06T10:09:06.143Z,66.30
2019-03-06T10:10:06.169Z,66.30
2019-03-06T10:11:06.209Z,66.30
2019-03-06T10:12:06.281Z,66.30
2019-03-06T10:13:06.264Z,66.39
2019-03-06T10:14:06.291Z,66.04
2019-03-06T10:15:06.333Z,65.81
2019-03-06T10:16:08.231Z,66.01
2019-03-06T10:17:06.445Z,65.91
2019-03-06T10:18:06.470Z,66.01
2019-03-06T10:19:06.449Z,66.04
2019-03-06T10:20:06.539Z,66.04
2019-03-06T10:21:06.552Z,65.94
2019-03-06T10:22:06.598Z,65.94
2019-03-06T10:23:08.332Z,66.04
2019-03-06T10:24:06.662Z,66.04
2019-03-06T10:25:06.720Z,65.85
2019-03-06T10:26:06.724Z,65.75
2019-03-06T10:27:06.707Z,66.14
2019-03-06T10:28:07.010Z,65.75
2019-03-06T10:29:06.832Z,65.66
2019-03-06T10:30:06.852Z,65.75
2019-03-06T10:32:07.221Z,65.56
2019-03-06T10:34:06.981Z,65.37
2019-03-06T10:35:07.017Z,65.75
2019-03-06T10:36:07.067Z,65.27
2019-03-06T10:38:08.300Z,65.66
2019-03-06T10:39:07.105Z,65.56
2019-03-06T10:40:07.125Z,65.66
2019-03-06T10:41:07.207Z,65.56
2019-03-06T10:42:07.192Z,65.46
2019-03-06T10:43:07.217Z,65.75
2019-03-06T10:44:07.302Z,65.27
2019-03-06T10:46:07.366Z,65.46
2019-03-06T10:47:07.345Z,65.56
2019-03-06T10:48:07.380Z,65.46
2019-03-06T10:49:07.417Z,65.66
2019-03-06T10:50:07.449Z,65.27
2019-03-06T10:51:07.828Z,65.46
2019-03-06T10:52:07.561Z,65.37
2019-03-06T10:53:07.598Z,65.27
2019-03-06T10:54:07.621Z,65.27
2019-03-06T10:55:07.614Z,65.17
2019-03-06T10:56:07.700Z,65.08
2019-03-06T10:57:07.678Z,65.27
2019-03-06T10:58:07.748Z,65.17
2019-03-06T10:59:07.758Z,65.27
2019-03-06T11:00:07.821Z,65.17
2019-03-06T11:01:07.795Z,65.08
2019-03-06T11:02:07.882Z,64.98
2019-03-06T11:03:07.912Z,65.08
2019-03-06T11:05:07.943Z,65.08
2019-03-06T11:06:08.008Z,64.98
2019-03-06T11:07:08.039Z,64.89
2019-03-06T11:08:08.087Z,65.27
2019-03-06T11:09:08.057Z,65.46
2019-03-06T11:10:08.104Z,65.37
2019-03-06T11:11:08.170Z,64.79
2019-03-06T11:12:08.205Z,64.40
2019-03-06T11:13:08.618Z,64.50
2019-03-06T11:14:08.421Z,64.50
2019-03-06T11:15:08.303Z,64.89
2019-03-06T11:16:08.331Z,64.59
2019-03-06T11:17:08.365Z,65.27
2019-03-06T11:18:08.342Z,64.59
2019-03-06T11:19:08.391Z,64.50
2019-03-06T11:20:08.634Z,64.69
2019-03-06T11:21:08.494Z,64.50
2019-03-06T11:22:08.479Z,65.27
2019-03-06T11:23:08.561Z,64.50
2019-03-06T11:24:08.590Z,65.17
2019-03-06T11:25:08.626Z,65.17
2019-03-06T11:26:08.954Z,65.27
2019-03-06T11:27:08.638Z,64.89
2019-03-06T11:28:09.400Z,64.69
2019-03-06T11:29:08.765Z,64.73
2019-03-06T11:30:08.738Z,64.73
2019-03-06T11:31:08.770Z,65.27
2019-03-06T11:32:08.850Z,64.73
2019-03-06T11:33:08.831Z,64.98
2019-03-06T11:34:08.906Z,64.92
2019-03-06T11:35:08.974Z,64.89
2019-03-06T11:36:08.975Z,64.92
2019-03-06T11:37:09.018Z,64.82
2019-03-06T11:38:08.990Z,65.11
2019-03-06T11:39:09.033Z,65.01
2019-03-06T11:40:09.123Z,65.01
2019-03-06T11:41:09.388Z,64.92
2019-03-06T11:42:09.165Z,64.43
2019-03-06T11:43:09.158Z,64.63
2019-03-06T11:45:09.277Z,65.01
2019-03-06T11:47:09.336Z,64.63
2019-03-06T11:48:09.366Z,64.25
2019-03-06T11:49:09.344Z,64.15
2019-03-06T11:50:09.425Z,64.40
2019-03-06T11:51:09.465Z,64.15
2019-03-06T11:52:09.497Z,64.34
2019-03-06T11:53:09.528Z,64.25
2019-03-06T11:54:09.553Z,64.63
2019-03-06T11:55:09.727Z,64.15
2019-03-06T11:56:09.619Z,64.15
2019-03-06T11:57:09.658Z,64.34
2019-03-06T11:58:09.688Z,64.25
2019-03-06T11:59:09.667Z,64.43
2019-03-06T12:00:09.995Z,64.63
2019-03-06T12:01:09.816Z,64.34
2019-03-06T12:02:09.786Z,64.25
2019-03-06T12:03:09.801Z,64.25
2019-03-06T12:04:09.875Z,64.34
2019-03-06T12:05:09.866Z,64.25
2019-03-06T12:06:09.946Z,64.15
2019-03-06T12:07:09.971Z,64.25
2019-03-06T12:08:10.079Z,64.34
2019-03-06T12:09:10.047Z,64.43
2019-03-06T12:10:10.324Z,64.43
2019-03-06T12:11:10.058Z,64.25
2019-03-06T12:12:10.151Z,64.53
2019-03-06T12:13:10.171Z,64.53
2019-03-06T12:14:10.158Z,64.53
2019-03-06T12:15:10.239Z,64.53
2019-03-06T12:16:10.277Z,64.53
2019-03-06T12:17:10.251Z,64.53
2019-03-06T12:18:10.626Z,64.15
2019-03-06T12:19:10.431Z,64.15
2019-03-06T12:20:10.349Z,64.25
2019-03-06T12:21:10.393Z,64.15
2019-03-06T12:22:10.406Z,63.95
2019-03-06T12:23:10.445Z,64.15
2019-03-06T12:24:10.530Z,64.34
2019-03-06T12:25:10.882Z,64.15
2019-03-06T12:26:10.540Z,64.15
2019-03-06T12:27:10.623Z,64.25
2019-03-06T12:28:10.600Z,64.15
2019-03-06T12:29:10.643Z,63.95
2019-03-06T12:30:10.667Z,64.05
2019-03-06T12:31:10.747Z,64.15
2019-03-06T12:32:11.084Z,64.15
2019-03-06T12:33:10.817Z,64.15
2019-03-06T12:34:10.802Z,64.25
2019-03-06T12:37:10.947Z,64.15
2019-03-06T12:38:10.987Z,64.05
2019-03-06T12:39:11.537Z,64.05
2019-03-06T12:40:12.995Z,63.95
2019-03-06T12:41:12.687Z,64.15
2019-03-06T12:42:14.358Z,63.95
2019-03-06T12:43:11.094Z,64.05
2019-03-06T12:44:11.275Z,64.15
2019-03-06T12:45:11.500Z,63.95
2019-03-06T12:46:11.238Z,64.15
2019-03-06T12:47:11.223Z,63.95
2019-03-06T12:48:11.299Z,64.15
2019-03-06T12:49:11.355Z,64.25
2019-03-06T12:50:11.673Z,64.25
2019-03-06T12:51:11.357Z,63.95
2019-03-06T12:52:11.388Z,64.15
2019-03-06T12:53:12.883Z,63.95
2019-03-06T12:54:11.447Z,64.25
2019-03-06T12:55:11.534Z,64.15
2019-03-06T12:56:11.519Z,64.25
2019-03-06T12:57:11.551Z,64.25
2019-03-06T12:58:11.628Z,64.25
2019-03-06T12:59:11.661Z,64.25
2019-03-06T13:00:11.687Z,64.15
2019-03-06T13:01:11.721Z,64.05
2019-03-06T13:02:11.708Z,64.15
2019-03-06T13:03:11.762Z,64.25
2019-03-06T13:04:11.830Z,64.25
2019-03-06T13:05:11.854Z,64.25
2019-03-06T13:06:11.839Z,64.25
2019-03-06T13:07:11.867Z,64.15
2019-03-06T13:08:19.466Z,64.34
2019-03-06T13:09:11.982Z,64.25
2019-03-06T13:12:12.090Z,64.25
2019-03-06T13:13:12.123Z,64.25
2019-03-06T13:14:12.093Z,64.15
2019-03-06T13:15:12.141Z,64.15
2019-03-06T13:16:12.406Z,64.25
2019-03-06T13:17:12.353Z,64.34
2019-03-06T13:18:12.419Z,64.15
2019-03-06T13:19:12.303Z,64.25
2019-03-06T13:20:12.364Z,64.25
2019-03-06T13:22:12.706Z,64.15
2019-03-06T13:23:12.431Z,64.25
2019-03-06T13:24:12.420Z,64.15
2019-03-06T13:25:12.459Z,64.15
2019-03-06T13:26:12.551Z,64.25
2019-03-06T13:27:12.530Z,64.25
2019-03-06T13:28:12.851Z,64.15
2019-03-06T13:30:12.666Z,64.15